Time;durP1;ratioP1;P1;durP2;ratioP2;P2;SDS_P1;SDS_P2;PMS_P1;PMS_P2;Temp;Humidity;BMP_temperature;BMP_pressure;BME280_temperature;BME280_humidity;BME280_pressure;Samples;Min_cycle;Max_cycle;Signal;HPM_P1;HPM_P2
2022/01/27 00:01:00;;;;;;;79.20;42.05;;;3.90;99.90;;;;;;4919049;29;20028;-77
2022/01/27 00:03:31;;;;;;;73.68;39.35;;;3.90;99.90;;;;;;4918896;29;20036;-75
2022/01/27 00:06:02;;;;;;;74.82;38.22;;;3.90;99.90;;;;;;4918380;29;20404;-78
2022/01/27 00:08:41;;;;;;;72.20;39.10;;;4.00;99.90;;;;;;4918294;29;20424;-77
2022/01/27 00:11:13;;;;;;;69.70;38.65;;;3.90;99.90;;;;;;4901939;29;20564;-76
2022/01/27 00:13:59;;;;;;;65.35;36.60;;;3.90;99.90;;;;;;4918738;29;20159;-78
2022/01/27 00:16:28;;;;;;;65.97;37.70;;;3.80;99.90;;;;;;4918477;29;20055;-77
2022/01/27 00:18:55;;;;;;;74.97;38.17;;;3.70;99.90;;;;;;4918173;29;20412;-78
2022/01/27 00:21:24;;;;;;;81.00;39.70;;;3.60;99.90;;;;;;4918082;29;20033;-78
2022/01/27 00:23:51;;;;;;;67.95;35.78;;;3.50;99.90;;;;;;4917177;29;20031;-77
2022/01/27 00:26:18;;;;;;;68.50;36.50;;;3.40;99.90;;;;;;4918386;29;20028;-78
2022/01/27 00:28:48;;;;;;;65.72;36.65;;;3.40;99.90;;;;;;4901098;29;20084;-76
2022/01/27 00:31:17;;;;;;;64.38;35.63;;;3.30;99.90;;;;;;4918168;29;20384;-78
2022/01/27 00:33:44;;;;;;;92.38;43.20;;;3.40;99.90;;;;;;4918406;29;20032;-79
2022/01/27 00:36:10;;;;;;;96.05;45.45;;;3.20;99.90;;;;;;4917612;29;20677;-78
2022/01/27 00:38:36;;;;;;;77.68;40.45;;;3.30;99.90;;;;;;4916190;29;20051;-78
2022/01/27 00:41:02;;;;;;;78.60;39.70;;;3.40;99.90;;;;;;4917102;29;20036;-78
2022/01/27 00:43:28;;;;;;;77.55;40.78;;;3.50;99.90;;;;;;4917171;29;20109;-75
2022/01/27 00:45:54;;;;;;;84.93;41.63;;;3.60;99.90;;;;;;4916499;29;20036;-77
2022/01/27 00:48:19;;;;;;;85.93;44.03;;;3.60;99.90;;;;;;4916956;29;20024;-77
2022/01/27 00:50:55;;;;;;;85.72;43.53;;;3.70;99.90;;;;;;4917588;29;20632;-77
2022/01/27 00:55:53;;;;;;;;;;;3.80;99.90;;;;;;4918600;29;20021;-78
2022/01/27 00:58:50;;;;;;;85.03;40.22;;;3.80;99.90;;;;;;4917054;29;19915;-75
2022/01/27 01:01:20;;;;;;;76.30;40.08;;;3.80;99.90;;;;;;4917240;29;20110;-78
2022/01/27 01:03:48;;;;;;;80.72;40.70;;;3.80;99.90;;;;;;4917819;29;20080;-77
2022/01/27 01:14:31;;;;;;;62.63;35.95;;;3.90;99.90;;;;;;4917594;29;20053;-78
2022/01/27 01:30:49;;;;;;;71.35;37.03;;;3.60;99.90;;;;;;4917214;29;20051;-77
2022/01/27 01:33:21;;;;;;;60.40;34.28;;;3.60;99.90;;;;;;4916843;29;20035;-78
2022/01/27 01:35:49;;;;;;;64.90;33.40;;;3.40;99.90;;;;;;4916783;29;20103;-76
2022/01/27 01:38:21;;;;;;;58.00;33.42;;;3.40;99.90;;;;;;4917147;29;20044;-78
2022/01/27 01:40:50;;;;;;;57.55;33.10;;;3.30;99.90;;;;;;4917248;29;20029;-78
2022/01/27 01:43:16;;;;;;;58.60;31.00;;;3.30;99.90;;;;;;4916585;29;20032;-78
2022/01/27 01:45:43;;;;;;;56.90;30.75;;;3.30;99.90;;;;;;4916993;29;20250;-77
2022/01/27 01:48:10;;;;;;;61.42;32.47;;;3.30;99.90;;;;;;4917010;29;20059;-78
2022/01/27 01:50:36;;;;;;;57.90;30.55;;;3.40;99.90;;;;;;4917189;29;20040;-78
2022/01/27 01:53:03;;;;;;;54.33;30.98;;;3.40;99.90;;;;;;4917176;29;20080;-78
2022/01/27 01:55:30;;;;;;;62.67;32.83;;;3.50;99.90;;;;;;4917172;29;20111;-78
2022/01/27 01:57:57;;;;;;;65.65;34.17;;;3.50;99.90;;;;;;4916888;29;20103;-78
2022/01/27 02:00:24;;;;;;;65.97;33.50;;;3.60;99.90;;;;;;4917058;29;20032;-77
2022/01/27 02:02:50;;;;;;;66.72;35.67;;;3.70;99.90;;;;;;4916752;29;20024;-77
2022/01/27 02:05:16;;;;;;;68.82;32.95;;;3.70;99.90;;;;;;4916686;29;20032;-77
2022/01/27 02:19:26;;;;;;;52.75;28.40;;;3.50;99.90;;;;;;4898761;29;20047;-77
2022/01/27 02:21:54;;;;;;;59.50;30.88;;;3.50;99.90;;;;;;4897644;29;20028;-75
2022/01/27 02:24:22;;;;;;;55.65;31.38;;;3.50;99.90;;;;;;4898053;29;20381;-77
2022/01/27 02:26:49;;;;;;;52.63;30.08;;;3.50;99.90;;;;;;4897568;29;20020;-77
2022/01/27 02:29:16;;;;;;;62.25;32.17;;;3.50;99.90;;;;;;4897636;29;20115;-77
2022/01/27 02:31:42;;;;;;;53.72;29.92;;;3.50;99.90;;;;;;4897571;29;20024;-77
2022/01/27 02:34:08;;;;;;;58.78;30.73;;;3.50;99.90;;;;;;4897473;29;20025;-77
2022/01/27 02:36:34;;;;;;;57.85;31.30;;;3.50;99.90;;;;;;4897287;29;20481;-78
2022/01/27 02:39:02;;;;;;;57.70;30.90;;;3.50;99.90;;;;;;4896779;29;20045;-78
2022/01/27 02:41:35;;;;;;;55.92;30.60;;;3.50;99.90;;;;;;4897523;29;20040;-77
2022/01/27 02:44:00;;;;;;;52.10;28.00;;;3.40;99.90;;;;;;4897600;29;20021;-77
2022/01/27 02:46:34;;;;;;;56.75;29.77;;;3.40;99.90;;;;;;4897358;29;20710;-75
2022/01/27 02:49:00;;;;;;;56.67;31.02;;;3.40;99.90;;;;;;4901067;29;20036;-78
2022/01/27 02:51:26;;;;;;;57.15;31.25;;;3.30;99.90;;;;;;4901444;29;20029;-78
2022/01/27 02:53:51;;;;;;;65.90;30.95;;;3.30;99.90;;;;;;4901229;29;20027;-78
2022/01/27 02:56:18;;;;;;;61.28;32.47;;;3.30;99.90;;;;;;4900733;29;20032;-78
2022/01/27 02:58:43;;;;;;;57.72;30.35;;;3.30;99.90;;;;;;4900913;29;20418;-78
2022/01/27 03:01:10;;;;;;;60.40;30.05;;;3.30;99.90;;;;;;4901426;29;20059;-78
2022/01/27 03:03:36;;;;;;;56.15;29.08;;;3.30;99.90;;;;;;4901290;29;20076;-78
2022/01/27 03:06:02;;;;;;;55.90;30.40;;;3.30;99.90;;;;;;4900930;29;20029;-77
2022/01/27 03:08:27;;;;;;;52.22;28.88;;;3.30;99.90;;;;;;4900659;29;20385;-78
2022/01/27 03:11:01;;;;;;;57.30;30.80;;;3.30;99.90;;;;;;4900991;29;20103;-78
2022/01/27 03:13:30;;;;;;;58.78;31.15;;;3.30;99.90;;;;;;4900959;29;20025;-78
2022/01/27 03:15:56;;;;;;;55.58;30.83;;;3.40;99.90;;;;;;4900716;29;20485;-78
2022/01/27 03:18:21;;;;;;;58.28;30.52;;;3.40;99.90;;;;;;4914045;29;20044;-78
2022/01/27 03:20:47;;;;;;;54.92;30.85;;;3.40;99.90;;;;;;4919234;29;20028;-78
2022/01/27 03:23:13;;;;;;;57.28;31.73;;;3.40;99.90;;;;;;4919232;29;20020;-78
2022/01/27 03:25:38;;;;;;;55.92;30.17;;;3.40;99.90;;;;;;4919394;29;20107;-77
2022/01/27 03:28:07;;;;;;;60.42;30.92;;;3.40;99.90;;;;;;4919275;29;20340;-77
2022/01/27 03:30:32;;;;;;;56.42;29.00;;;3.40;99.90;;;;;;4919550;29;20032;-77
2022/01/27 03:32:58;;;;;;;58.20;29.52;;;3.30;99.90;;;;;;4919395;29;20381;-78
2022/01/27 03:35:24;;;;;;;58.60;30.05;;;3.20;99.90;;;;;;4919363;29;20088;-75
2022/01/27 03:37:49;;;;;;;57.67;30.08;;;3.20;99.90;;;;;;4919407;29;20031;-79
2022/01/27 03:40:15;;;;;;;51.47;29.80;;;3.20;99.90;;;;;;4919233;29;20520;-76
2022/01/27 03:42:50;;;;;;;55.22;30.98;;;3.10;99.90;;;;;;4902185;29;20032;-77
2022/01/27 03:45:16;;;;;;;55.78;31.08;;;3.00;99.90;;;;;;4918721;29;20380;-77
2022/01/27 03:47:42;;;;;;;54.03;31.50;;;3.00;99.90;;;;;;4918781;29;20024;-74
2022/01/27 03:50:08;;;;;;;58.00;31.33;;;2.90;99.90;;;;;;4919193;29;20028;-78
2022/01/27 03:52:34;;;;;;;55.97;29.75;;;2.90;99.90;;;;;;4919202;29;20166;-76
2022/01/27 03:54:59;;;;;;;60.72;31.10;;;2.90;99.90;;;;;;4919094;29;20115;-75
2022/01/27 03:57:25;;;;;;;59.40;31.70;;;3.00;99.90;;;;;;4919019;29;20028;-77
2022/01/27 03:59:51;;;;;;;66.75;32.47;;;3.00;99.90;;;;;;4918776;29;20047;-78
2022/01/27 04:02:17;;;;;;;58.85;30.33;;;3.10;99.90;;;;;;4918908;29;20031;-77
2022/01/27 04:04:42;;;;;;;63.83;32.40;;;3.20;99.90;;;;;;4918847;29;20480;-77
2022/01/27 04:07:08;;;;;;;65.22;34.00;;;3.20;99.90;;;;;;4917067;29;20060;-80
2022/01/27 04:09:34;;;;;;;57.45;30.88;;;3.20;99.90;;;;;;4916675;29;20028;-78
2022/01/27 04:12:00;;;;;;;59.65;31.60;;;3.20;99.90;;;;;;4918025;29;20024;-75
2022/01/27 04:14:25;;;;;;;57.75;32.55;;;3.20;99.90;;;;;;4917930;29;20088;-77
2022/01/27 04:16:51;;;;;;;62.50;32.78;;;3.20;99.90;;;;;;4916282;29;20075;-78
2022/01/27 04:19:17;;;;;;;55.88;29.83;;;3.20;99.90;;;;;;4916569;29;20095;-77
2022/01/27 04:21:43;;;;;;;52.05;28.17;;;3.20;99.90;;;;;;4916445;29;20536;-76
2022/01/27 04:24:10;;;;;;;61.03;30.10;;;3.20;99.90;;;;;;4916250;29;20028;-77
2022/01/27 04:26:46;;;;;;;57.55;30.33;;;3.10;99.90;;;;;;4916428;29;20060;-77
2022/01/27 04:29:13;;;;;;;54.03;28.80;;;3.20;99.90;;;;;;4899584;29;20362;-78
2022/01/27 04:31:42;;;;;;;58.58;29.98;;;3.10;99.90;;;;;;4918376;29;20052;-77
2022/01/27 04:34:08;;;;;;;50.15;28.15;;;3.20;99.90;;;;;;4918497;29;20040;-78
2022/01/27 04:36:35;;;;;;;57.13;29.95;;;3.10;99.90;;;;;;4918040;29;20024;-76
2022/01/27 04:44:59;;;;;;;58.88;28.27;;;3.10;99.90;;;;;;4918603;29;20032;-78
2022/01/27 04:47:46;;;;;;;55.63;29.08;;;3.20;99.90;;;;;;4910483;29;20095;-77
2022/01/27 04:49:48;;;;;;;54.40;29.08;;;3.20;99.90;;;;;;4915032;29;20074;-78
2022/01/27 04:52:14;;;;;;;58.03;28.63;;;3.20;99.90;;;;;;4917959;29;20047;-76
2022/01/27 04:54:54;;;;;;;54.88;28.67;;;3.20;99.90;;;;;;4917918;29;20024;-77
2022/01/27 04:57:19;;;;;;;55.78;28.63;;;3.10;99.90;;;;;;4917944;29;20028;-77
2022/01/27 04:59:45;;;;;;;50.10;28.85;;;3.00;99.90;;;;;;4917969;29;20091;-77
2022/01/27 05:02:27;;;;;;;48.92;28.38;;;3.00;99.90;;;;;;4918166;29;20404;-77
2022/01/27 05:04:53;;;;;;;54.55;29.08;;;3.00;99.90;;;;;;4917799;29;20039;-79
2022/01/27 05:07:19;;;;;;;55.25;29.85;;;3.00;99.90;;;;;;4917353;29;20024;-77
2022/01/27 05:09:53;;;;;;;51.13;29.23;;;3.10;99.90;;;;;;4917030;29;20099;-78
2022/01/27 05:12:55;;;;;;;54.35;28.92;;;3.10;99.90;;;;;;4917817;29;20092;-77
2022/01/27 05:15:11;;;;;;;54.28;28.70;;;3.10;99.90;;;;;;4916510;29;20378;-78
2022/01/27 05:17:37;;;;;;;49.45;27.23;;;3.10;99.90;;;;;;4917486;29;20056;-78
2022/01/27 05:20:03;;;;;;;54.38;27.08;;;3.10;99.90;;;;;;4917532;29;20095;-78
2022/01/27 05:22:31;;;;;;;53.30;28.05;;;3.00;99.90;;;;;;4917565;29;20020;-77
2022/01/27 05:24:57;;;;;;;50.88;26.23;;;3.10;99.90;;;;;;4917670;29;20028;-75
2022/01/27 05:27:23;;;;;;;53.40;29.42;;;3.10;99.90;;;;;;4916922;29;20476;-78
2022/01/27 05:29:49;;;;;;;58.85;29.70;;;3.10;99.90;;;;;;4900259;29;20034;-79
2022/01/27 05:32:14;;;;;;;52.53;28.98;;;3.10;99.90;;;;;;4917450;29;20148;-79
2022/01/27 05:34:40;;;;;;;46.78;26.17;;;3.20;99.90;;;;;;4917158;29;20051;-76
2022/01/27 05:37:06;;;;;;;55.15;28.25;;;3.20;99.90;;;;;;4917287;29;20059;-74
2022/01/27 05:39:31;;;;;;;59.05;27.95;;;3.10;99.90;;;;;;4917227;29;20042;-78
2022/01/27 05:41:57;;;;;;;49.88;27.48;;;3.10;99.90;;;;;;4916997;29;20110;-78
2022/01/27 05:44:23;;;;;;;51.50;28.67;;;3.10;99.90;;;;;;4916598;29;20059;-76
2022/01/27 05:46:48;;;;;;;53.13;27.05;;;3.10;99.90;;;;;;4916869;29;20035;-78
2022/01/27 05:49:14;;;;;;;54.53;27.63;;;3.10;99.90;;;;;;4917167;29;20063;-77
2022/01/27 05:51:40;;;;;;;53.60;27.90;;;3.10;99.90;;;;;;4917214;29;20084;-78
2022/01/27 05:54:05;;;;;;;53.15;28.05;;;3.10;99.90;;;;;;4917225;29;20028;-78
2022/01/27 05:56:31;;;;;;;51.17;27.20;;;3.10;99.90;;;;;;4916462;29;20024;-74
2022/01/27 05:58:56;;;;;;;52.33;27.48;;;3.00;99.90;;;;;;4916749;29;20036;-79
2022/01/27 06:01:22;;;;;;;54.45;25.25;;;3.00;99.90;;;;;;4916959;29;20032;-81
2022/01/27 06:03:48;;;;;;;48.33;27.08;;;2.90;99.90;;;;;;4917581;29;20029;-75
2022/01/27 06:06:13;;;;;;;59.70;27.95;;;2.80;99.90;;;;;;4916764;29;20066;-80
2022/01/27 06:08:39;;;;;;;50.50;25.95;;;2.80;99.90;;;;;;4916680;29;20027;-78
2022/01/27 06:11:06;;;;;;;42.75;24.35;;;2.70;99.90;;;;;;4916401;29;20031;-80
2022/01/27 06:13:31;;;;;;;53.80;26.73;;;2.70;99.90;;;;;;4916612;29;20023;-80
2022/01/27 06:15:57;;;;;;;46.47;27.02;;;2.80;99.90;;;;;;4916658;29;20079;-74
2022/01/27 06:18:23;;;;;;;56.75;27.48;;;2.80;99.90;;;;;;4916239;29;20048;-80
2022/01/27 06:20:49;;;;;;;51.15;26.80;;;2.80;99.90;;;;;;4916257;29;20551;-77
2022/01/27 06:23:14;;;;;;;59.25;28.92;;;2.80;99.90;;;;;;4916199;29;20024;-79
2022/01/27 06:25:41;;;;;;;52.42;28.48;;;2.80;99.90;;;;;;4915610;29;20378;-80
2022/01/27 06:28:06;;;;;;;54.78;26.58;;;2.80;99.90;;;;;;4916045;29;20115;-78
2022/01/27 06:30:35;;;;;;;56.17;27.85;;;2.80;99.90;;;;;;4916113;29;20119;-73
2022/01/27 06:33:05;;;;;;;51.88;27.27;;;2.80;99.90;;;;;;4916410;29;20028;-74
2022/01/27 06:35:31;;;;;;;42.55;24.60;;;2.90;99.90;;;;;;4916210;29;20058;-80
2022/01/27 06:37:57;;;;;;;41.97;24.77;;;2.80;99.90;;;;;;4916697;29;20040;-77
2022/01/27 06:40:22;;;;;;;48.30;25.77;;;2.80;99.90;;;;;;4916434;29;20369;-76
2022/01/27 06:42:48;;;;;;;54.58;26.45;;;2.70;99.90;;;;;;4898213;29;20036;-76
2022/01/27 06:45:14;;;;;;;51.28;27.08;;;2.60;99.90;;;;;;4916123;29;20031;-74
2022/01/27 06:47:40;;;;;;;47.53;25.80;;;2.60;99.90;;;;;;4916427;29;20492;-81
2022/01/27 06:50:06;;;;;;;47.97;26.35;;;2.60;99.90;;;;;;4916479;29;20488;-80
2022/01/27 06:52:33;;;;;;;56.13;27.17;;;2.60;99.90;;;;;;4916192;29;20087;-80
2022/01/27 06:54:58;;;;;;;51.10;28.00;;;2.60;99.90;;;;;;4916280;29;20028;-78
2022/01/27 06:57:24;;;;;;;56.03;26.08;;;2.60;99.90;;;;;;4916053;29;20100;-75
2022/01/27 06:59:51;;;;;;;47.15;26.23;;;2.70;99.90;;;;;;4916351;29;20028;-73
2022/01/27 07:02:17;;;;;;;56.22;26.85;;;2.70;99.90;;;;;;4916308;29;20055;-78
2022/01/27 07:04:42;;;;;;;47.53;25.05;;;2.70;99.90;;;;;;4915940;29;20481;-81
2022/01/27 07:07:08;;;;;;;57.15;25.48;;;2.80;99.90;;;;;;4915562;29;20035;-80
2022/01/27 07:09:34;;;;;;;60.55;26.02;;;2.90;99.90;;;;;;4916364;29;20028;-76
2022/01/27 07:12:00;;;;;;;50.00;24.98;;;2.90;99.90;;;;;;4916911;29;20381;-75
2022/01/27 07:14:26;;;;;;;54.85;26.33;;;3.00;99.90;;;;;;4916470;29;20032;-77
2022/01/27 07:16:51;;;;;;;48.55;25.90;;;3.10;99.90;;;;;;4915620;29;20123;-74
2022/01/27 07:19:17;;;;;;;47.55;26.63;;;3.30;99.90;;;;;;4916051;29;20100;-76
2022/01/27 07:21:43;;;;;;;52.83;25.58;;;3.40;99.90;;;;;;4916325;29;20024;-76
2022/01/27 07:24:08;;;;;;;51.72;25.42;;;3.50;99.90;;;;;;4916173;29;20061;-80
2022/01/27 07:26:34;;;;;;;46.85;25.05;;;3.70;99.90;;;;;;4916026;29;20111;-75
2022/01/27 07:29:00;;;;;;;46.38;25.75;;;3.80;99.90;;;;;;4916031;29;20076;-76
2022/01/27 07:31:26;;;;;;;46.70;25.88;;;3.90;99.90;;;;;;4916097;29;20373;-77
2022/01/27 07:33:53;;;;;;;51.53;26.27;;;4.00;99.90;;;;;;4917773;29;20030;-77
2022/01/27 07:36:20;;;;;;;54.00;26.90;;;4.20;99.90;;;;;;4919297;29;20032;-79
2022/01/27 07:38:48;;;;;;;51.67;26.70;;;4.40;99.90;;;;;;4919245;29;20036;-74
2022/01/27 07:41:15;;;;;;;55.72;26.92;;;4.60;99.90;;;;;;4918927;29;20032;-73
2022/01/27 07:43:41;;;;;;;50.08;26.70;;;4.80;99.90;;;;;;4918926;29;20350;-74
2022/01/27 07:46:07;;;;;;;56.40;28.85;;;4.80;99.90;;;;;;4918980;29;20079;-76
2022/01/27 07:48:33;;;;;;;48.80;26.38;;;4.80;99.90;;;;;;4919243;29;20036;-72
2022/01/27 07:51:02;;;;;;;48.40;26.35;;;4.80;99.90;;;;;;4919133;29;20522;-77
2022/01/27 07:53:27;;;;;;;48.80;27.10;;;4.70;99.90;;;;;;4919139;29;20027;-78
2022/01/27 07:55:53;;;;;;;49.28;26.67;;;4.70;99.90;;;;;;4919045;29;20028;-73
2022/01/27 07:58:19;;;;;;;52.03;27.63;;;4.70;99.90;;;;;;4918962;29;20029;-73
2022/01/27 08:00:45;;;;;;;49.28;26.67;;;4.70;99.90;;;;;;4919027;29;20047;-76
2022/01/27 08:03:10;;;;;;;50.47;26.70;;;4.70;99.90;;;;;;4918990;29;20413;-77
2022/01/27 08:05:36;;;;;;;45.97;25.77;;;4.60;99.90;;;;;;4918830;29;20032;-78
2022/01/27 08:08:02;;;;;;;56.92;27.02;;;4.60;99.90;;;;;;4918655;29;20544;-77
2022/01/27 08:10:28;;;;;;;48.22;27.33;;;4.60;99.90;;;;;;4918712;29;20020;-78
2022/01/27 08:12:53;;;;;;;53.33;26.60;;;4.70;99.90;;;;;;4918311;29;20420;-79
2022/01/27 08:15:22;;;;;;;49.42;26.80;;;4.70;99.90;;;;;;4918565;29;20103;-77
2022/01/27 08:17:48;;;;;;;51.15;29.10;;;4.80;99.90;;;;;;4918605;29;20082;-77
2022/01/27 08:20:14;;;;;;;55.45;29.52;;;4.90;99.90;;;;;;4918215;29;20040;-76
2022/01/27 08:22:44;;;;;;;49.85;27.90;;;5.00;99.90;;;;;;4917987;29;20032;-74
2022/01/27 08:25:10;;;;;;;52.60;27.45;;;5.20;99.90;;;;;;4918467;29;20020;-80
2022/01/27 08:27:38;;;;;;;53.47;30.02;;;5.30;99.90;;;;;;4917481;29;20400;-78
2022/01/27 08:30:05;;;;;;;50.10;27.73;;;5.40;99.90;;;;;;4918683;29;20024;-73
2022/01/27 08:32:47;;;;;;;55.55;27.67;;;5.50;99.90;;;;;;4918320;29;20032;-76
2022/01/27 08:35:13;;;;;;;;;;;5.50;99.90;;;;;;4917180;29;20064;-78
2022/01/27 08:37:39;;;;;;;62.30;29.65;;;5.60;99.90;;;;;;4917707;29;19907;-77
2022/01/27 08:40:06;;;;;;;58.83;30.08;;;5.70;99.90;;;;;;4917589;29;20078;-76
2022/01/27 08:42:32;;;;;;;62.35;31.05;;;5.70;99.90;;;;;;4917502;29;20655;-73
2022/01/27 08:44:58;;;;;;;66.65;30.40;;;5.80;99.90;;;;;;4898957;29;20119;-73
2022/01/27 08:47:24;;;;;;;66.07;30.92;;;5.90;99.90;;;;;;4917581;29;20024;-73
2022/01/27 08:49:50;;;;;;;54.20;30.23;;;6.00;99.90;;;;;;4917542;29;20084;-72
2022/01/27 08:52:16;;;;;;;66.30;35.20;;;6.10;99.90;;;;;;4917391;29;20044;-74
2022/01/27 08:54:42;;;;;;;69.85;34.45;;;6.30;99.90;;;;;;4916883;29;20024;-72
2022/01/27 08:57:08;;;;;;;61.05;33.72;;;6.40;99.90;;;;;;4916675;29;20031;-75
2022/01/27 08:59:34;;;;;;;74.20;36.90;;;6.50;99.90;;;;;;4916650;29;20036;-79
2022/01/27 09:02:00;;;;;;;76.20;39.67;;;6.50;99.90;;;;;;4915469;29;20048;-74
2022/01/27 09:04:26;;;;;;;78.35;40.88;;;6.60;99.90;;;;;;4916227;29;20032;-73
2022/01/27 09:06:51;;;;;;;88.03;47.47;;;6.70;99.90;;;;;;4913659;29;20045;-76
2022/01/27 09:09:17;;;;;;;108.63;54.28;;;6.70;99.90;;;;;;4913820;29;20036;-74
2022/01/27 09:11:46;;;;;;;112.35;59.10;;;6.80;99.90;;;;;;4916627;29;20035;-77
2022/01/27 09:14:13;;;;;;;120.90;62.30;;;6.80;99.90;;;;;;4916748;29;20533;-75
2022/01/27 09:16:40;;;;;;;139.02;64.90;;;6.90;99.90;;;;;;4916624;29;20047;-80
2022/01/27 09:19:05;;;;;;;129.80;64.72;;;7.00;99.90;;;;;;4919047;29;20045;-76
2022/01/27 09:21:44;;;;;;;120.95;62.20;;;7.20;99.90;;;;;;4916934;29;20024;-77
2022/01/27 09:24:15;;;;;;;110.57;60.65;;;7.40;99.90;;;;;;4915918;29;20016;-76
2022/01/27 09:29:16;;;;;;;133.93;58.80;;;7.50;99.90;;;;;;4917133;29;20028;-76
2022/01/27 09:31:42;;;;;;;109.22;55.70;;;7.60;99.90;;;;;;4917114;29;20080;-75
2022/01/27 09:34:07;;;;;;;108.30;56.15;;;7.70;99.90;;;;;;4916869;29;20072;-81
2022/01/27 09:36:33;;;;;;;112.28;55.45;;;7.80;99.90;;;;;;4919472;29;20047;-78
2022/01/27 09:38:59;;;;;;;104.88;54.50;;;7.80;99.90;;;;;;4911535;29;20036;-75
2022/01/27 09:41:27;;;;;;;103.45;54.45;;;7.90;99.90;;;;;;4911522;29;20028;-78
2022/01/27 09:43:54;;;;;;;93.45;47.70;;;8.00;99.90;;;;;;4896359;29;20465;-79
2022/01/27 09:46:25;;;;;;;98.35;52.60;;;7.90;99.90;;;;;;4915863;29;20048;-79
2022/01/27 09:48:52;;;;;;;103.25;50.00;;;7.90;99.90;;;;;;4914911;29;20035;-76
2022/01/27 09:51:38;;;;;;;109.43;57.75;;;8.00;99.90;;;;;;4916208;29;20028;-73
2022/01/27 09:54:05;;;;;;;104.70;57.35;;;8.00;99.90;;;;;;4915802;29;20115;-77
2022/01/27 09:56:31;;;;;;;111.53;59.20;;;8.00;99.90;;;;;;4915325;29;20059;-74
2022/01/27 09:58:57;;;;;;;120.55;60.40;;;8.10;99.90;;;;;;4916405;29;20067;-76
2022/01/27 10:01:23;;;;;;;114.97;60.10;;;8.20;99.90;;;;;;4919103;29;20024;-77
2022/01/27 10:04:00;;;;;;;120.03;59.28;;;8.30;99.90;;;;;;4924252;29;20033;-78
2022/01/27 10:06:29;;;;;;;121.35;57.10;;;8.40;99.90;;;;;;4915269;29;20111;-76
2022/01/27 10:09:15;;;;;;;126.13;63.95;;;8.40;99.90;;;;;;4916381;29;20035;-78
2022/01/27 10:11:42;;;;;;;114.20;59.42;;;8.40;99.90;;;;;;4915967;29;20418;-74
2022/01/27 10:14:27;;;;;;;124.28;62.03;;;8.50;99.90;;;;;;4916180;29;20032;-73
2022/01/27 10:16:56;;;;;;;106.47;59.75;;;8.40;99.90;;;;;;4913168;29;20167;-78
2022/01/27 10:19:23;;;;;;;121.00;59.28;;;8.50;99.90;;;;;;4915389;29;20040;-76
2022/01/27 10:21:50;;;;;;;113.93;59.03;;;8.40;99.90;;;;;;4916262;29;20498;-77
2022/01/27 10:24:24;;;;;;;115.22;57.33;;;8.40;99.90;;;;;;4916114;29;20567;-77
2022/01/27 10:32:45;;;;;;;105.75;53.88;;;8.50;99.90;;;;;;4875864;29;20225;-78
2022/01/27 10:35:13;;;;;;;99.75;53.97;;;8.50;99.90;;;;;;4913757;29;20032;-74
2022/01/27 10:37:56;;;;;;;94.65;51.42;;;8.50;99.90;;;;;;4915480;29;20114;-78
2022/01/27 10:40:29;;;;;;;92.75;50.42;;;8.40;99.90;;;;;;4915721;29;20029;-76
2022/01/27 10:43:22;;;;;;;108.10;50.72;;;8.40;99.90;;;;;;4915021;29;20608;-76
2022/01/27 10:49:32;;;;;;;87.57;46.95;;;8.50;99.90;;;;;;4914536;29;20020;-77
2022/01/27 10:51:49;;;;;;;123.07;60.60;;;8.40;99.90;;;;;;4905785;29;20042;-78
2022/01/27 10:54:21;;;;;;;119.00;62.13;;;8.40;99.90;;;;;;4913967;29;20030;-78
2022/01/27 10:56:47;;;;;;;140.82;64.80;;;8.40;99.90;;;;;;4915378;29;20072;-80
2022/01/27 10:59:15;;;;;;;123.05;62.92;;;8.40;99.90;;;;;;4914968;29;20037;-75
2022/01/27 11:01:47;;;;;;;111.43;57.92;;;8.40;99.90;;;;;;4915911;29;20031;-75
2022/01/27 11:04:14;;;;;;;105.50;54.40;;;8.40;99.90;;;;;;4915956;29;20111;-78
2022/01/27 11:07:01;;;;;;;114.32;54.60;;;8.30;99.90;;;;;;4915663;29;20483;-78
2022/01/27 11:09:28;;;;;;;114.53;60.50;;;8.40;99.90;;;;;;4916308;29;20020;-78
2022/01/27 11:11:56;;;;;;;115.72;59.50;;;8.40;99.90;;;;;;4919090;29;20036;-79
2022/01/27 11:14:25;;;;;;;129.60;64.13;;;8.40;99.90;;;;;;4919267;29;20111;-80
2022/01/27 11:16:56;;;;;;;135.65;65.38;;;8.40;99.90;;;;;;4917763;29;20477;-77
2022/01/27 11:22:29;;;;;;;145.15;68.25;;;8.40;99.90;;;;;;4918820;29;20024;-77
2022/01/27 11:27:34;;;;;;;131.73;70.00;;;8.40;99.90;;;;;;4917303;29;20091;-75
2022/01/27 11:30:18;;;;;;;129.82;63.75;;;8.50;99.90;;;;;;4918492;29;20031;-77
2022/01/27 11:32:55;;;;;;;119.43;58.80;;;8.50;99.90;;;;;;4918466;29;20037;-79
2022/01/27 11:35:25;;;;;;;108.82;59.13;;;8.60;99.90;;;;;;4918654;29;20032;-78
2022/01/27 11:38:03;;;;;;;130.98;65.70;;;8.60;99.90;;;;;;4918551;29;20515;-76
2022/01/27 11:40:41;;;;;;;131.20;70.00;;;8.50;99.90;;;;;;4918771;29;20176;-75
2022/01/27 11:43:11;;;;;;;133.38;67.65;;;8.60;99.90;;;;;;4918482;29;20142;-77
2022/01/27 11:45:42;;;;;;;132.75;67.82;;;8.50;99.90;;;;;;4918511;29;20200;-77
2022/01/27 11:48:12;;;;;;;131.77;69.03;;;8.50;99.90;;;;;;4917273;29;20035;-74
2022/01/27 11:50:51;;;;;;;143.35;71.47;;;8.40;99.90;;;;;;4917938;29;20024;-78
2022/01/27 11:53:30;;;;;;;126.72;67.50;;;8.40;99.90;;;;;;4916396;29;20476;-75
2022/01/27 11:56:20;;;;;;;134.60;70.13;;;8.30;99.90;;;;;;4900669;29;20032;-73
2022/01/27 11:58:55;;;;;;;135.75;69.47;;;8.30;99.90;;;;;;4895495;29;20075;-73
2022/01/27 12:01:28;;;;;;;144.88;69.47;;;8.30;99.90;;;;;;4918791;29;20476;-76
2022/01/27 12:04:04;;;;;;;127.35;67.07;;;8.30;99.90;;;;;;4918400;29;20032;-74
2022/01/27 12:06:32;;;;;;;137.20;68.38;;;8.20;99.90;;;;;;4917330;29;20028;-76
2022/01/27 12:09:19;;;;;;;132.05;67.13;;;8.10;99.90;;;;;;4917804;29;20020;-77
2022/01/27 12:11:54;;;;;;;131.02;66.95;;;8.10;99.90;;;;;;4917805;29;20043;-78
2022/01/27 12:14:47;;;;;;;134.55;67.63;;;8.10;99.90;;;;;;4917893;29;20039;-78
2022/01/27 12:17:13;;;;;;;128.35;66.63;;;8.10;99.90;;;;;;4916995;29;20052;-78
2022/01/27 12:19:51;;;;;;;123.57;64.82;;;8.10;99.90;;;;;;4917086;29;20469;-74
2022/01/27 12:22:17;;;;;;;121.55;65.13;;;8.10;99.90;;;;;;4916837;29;20045;-74
2022/01/27 12:24:56;;;;;;;122.65;63.33;;;8.10;99.90;;;;;;4917084;29;20103;-80
2022/01/27 12:27:23;;;;;;;121.07;63.72;;;8.00;99.90;;;;;;4915776;29;20536;-75
2022/01/27 12:29:52;;;;;;;131.10;66.60;;;8.10;99.90;;;;;;4917349;29;20506;-78
2022/01/27 12:32:29;;;;;;;133.98;66.25;;;8.10;99.90;;;;;;4900334;29;20044;-79
2022/01/27 12:34:56;;;;;;;138.27;68.25;;;8.10;99.90;;;;;;4916967;29;20020;-78
2022/01/27 12:37:24;;;;;;;123.57;66.35;;;8.10;99.90;;;;;;4917222;29;20039;-79
2022/01/27 12:39:59;;;;;;;132.55;69.82;;;8.10;99.90;;;;;;4916838;29;20043;-77
2022/01/27 12:42:32;;;;;;;134.95;68.90;;;8.20;99.90;;;;;;4915726;29;20020;-74
2022/01/27 12:45:00;;;;;;;124.47;65.75;;;8.20;99.90;;;;;;4917020;29;20031;-78
2022/01/27 12:47:27;;;;;;;132.70;68.72;;;8.20;99.90;;;;;;4917021;29;20036;-75
2022/01/27 12:50:07;;;;;;;124.82;67.57;;;8.20;99.90;;;;;;4917050;29;20034;-77
2022/01/27 12:52:42;;;;;;;126.82;66.30;;;8.20;99.90;;;;;;4916328;29;20473;-78
2022/01/27 12:55:12;;;;;;;123.93;63.45;;;8.20;99.90;;;;;;4916741;29;20028;-78
2022/01/27 12:57:40;;;;;;;125.45;63.65;;;8.20;99.90;;;;;;4913885;29;20047;-77
2022/01/27 13:00:09;;;;;;;122.57;61.80;;;8.20;99.90;;;;;;4916222;29;20025;-78
2022/01/27 13:02:35;;;;;;;107.40;58.83;;;8.20;99.90;;;;;;4915909;29;20024;-78
2022/01/27 13:05:02;;;;;;;109.25;59.38;;;8.20;99.90;;;;;;4916078;29;20020;-77
2022/01/27 13:07:29;;;;;;;117.25;61.13;;;8.20;99.90;;;;;;4916468;29;20115;-77
2022/01/27 13:10:02;;;;;;;135.60;62.92;;;8.20;99.90;;;;;;4916630;29;20031;-79
2022/01/27 13:12:34;;;;;;;123.65;62.58;;;8.20;99.90;;;;;;4916393;29;20124;-78
2022/01/27 13:15:07;;;;;;;;;;;8.10;99.90;;;;;;4914923;29;20076;-78
2022/01/27 13:18:00;;;;;;;114.50;61.60;;;8.10;99.90;;;;;;4898748;29;20286;-76
2022/01/27 13:23:20;;;;;;;113.10;57.78;;;8.10;99.90;;;;;;4914543;29;20020;-75
2022/01/27 13:25:54;;;;;;;118.90;61.63;;;8.00;99.90;;;;;;4915144;29;20043;-77
2022/01/27 13:28:24;;;;;;;137.48;66.07;;;8.00;99.90;;;;;;4915452;29;20044;-77
2022/01/27 13:30:53;;;;;;;145.07;68.60;;;8.10;99.90;;;;;;4914181;29;20028;-77
2022/01/27 13:33:23;;;;;;;124.20;64.57;;;8.00;99.90;;;;;;4915462;29;20064;-76
2022/01/27 13:35:50;;;;;;;115.93;60.15;;;8.10;99.90;;;;;;4915336;29;20027;-79
2022/01/27 13:38:28;;;;;;;110.40;57.30;;;8.10;99.90;;;;;;4912958;29;20073;-76
2022/01/27 13:43:52;;;;;;;118.05;58.70;;;8.00;99.90;;;;;;4913519;29;20453;-73
2022/01/27 13:46:34;;;;;;;106.35;58.63;;;8.00;99.90;;;;;;4915298;29;20393;-77
2022/01/27 13:49:08;;;;;;;103.63;56.78;;;8.00;99.90;;;;;;4898217;29;20024;-79